sensor_id;sensor_type;location;lat;lon;timestamp;pressure;altitude;pressure_sealevel;temperature;humidity
10348;BME280;5220;43.192;23.284;2023-07-13T00:02:16;97014.50;;;25.20;100.00
10348;BME280;5220;43.192;23.284;2023-07-13T00:04:43;97010.78;;;25.07;100.00
10348;BME280;5220;43.192;23.284;2023-07-13T00:07:09;97012.03;;;25.11;100.00
10348;BME280;5220;43.192;23.284;2023-07-13T00:09:37;97008.72;;;25.09;100.00
10348;BME280;5220;43.192;23.284;2023-07-13T00:12:05;97012.63;;;25.13;100.00
10348;BME280;5220;43.192;23.284;2023-07-13T00:14:47;96999.75;;;25.17;100.00
10348;BME280;5220;43.192;23.284;2023-07-13T00:17:14;96995.25;;;25.18;100.00
10348;BME280;5220;43.192;23.284;2023-07-13T00:19:41;96994.63;;;25.16;100.00
10348;BME280;5220;43.192;23.284;2023-07-13T00:22:08;96994.00;;;25.13;100.00
10348;BME280;5220;43.192;23.284;2023-07-13T00:24:34;96988.66;;;25.13;100.00
10348;BME280;5220;43.192;23.284;2023-07-13T00:27:08;96993.16;;;25.13;100.00
10348;BME280;5220;43.192;23.284;2023-07-13T00:29:35;96985.59;;;25.10;100.00
10348;BME280;5220;43.192;23.284;2023-07-13T00:32:02;96989.06;;;25.10;100.00
10348;BME280;5220;43.192;23.284;2023-07-13T00:34:29;96993.56;;;25.03;100.00
10348;BME280;5220;43.192;23.284;2023-07-13T00:36:56;96991.72;;;25.04;100.00
10348;BME280;5220;43.192;23.284;2023-07-13T00:39:23;96993.56;;;24.97;100.00
10348;BME280;5220;43.192;23.284;2023-07-13T00:41:51;96989.66;;;24.93;100.00
10348;BME280;5220;43.192;23.284;2023-07-13T00:44:20;96987.81;;;24.93;100.00
10348;BME280;5220;43.192;23.284;2023-07-13T00:46:48;96984.34;;;24.93;100.00
10348;BME280;5220;43.192;23.284;2023-07-13T00:49:17;96976.75;;;24.90;100.00
10348;BME280;5220;43.192;23.284;2023-07-13T00:51:49;96983.91;;;24.89;100.00
10348;BME280;5220;43.192;23.284;2023-07-13T00:54:19;96978.38;;;24.91;100.00
10348;BME280;5220;43.192;23.284;2023-07-13T00:56:49;96975.94;;;24.89;100.00
10348;BME280;5220;43.192;23.284;2023-07-13T00:59:19;96990.66;;;24.92;100.00
10348;BME280;5220;43.192;23.284;2023-07-13T01:01:47;96984.34;;;24.93;100.00
10348;BME280;5220;43.192;23.284;2023-07-13T01:04:14;96985.56;;;24.90;100.00
10348;BME280;5220;43.192;23.284;2023-07-13T01:06:41;96984.91;;;24.88;100.00
10348;BME280;5220;43.192;23.284;2023-07-13T01:09:10;96988.41;;;24.89;100.00
10348;BME280;5220;43.192;23.284;2023-07-13T01:11:38;96991.28;;;24.87;100.00
10348;BME280;5220;43.192;23.284;2023-07-13T01:14:04;96986.16;;;24.86;100.00
10348;BME280;5220;43.192;23.284;2023-07-13T01:16:34;96986.38;;;24.84;100.00
10348;BME280;5220;43.192;23.284;2023-07-13T01:19:09;96973.06;;;24.84;100.00
10348;BME280;5220;43.192;23.284;2023-07-13T01:21:40;96978.16;;;24.86;100.00
10348;BME280;5220;43.192;23.284;2023-07-13T01:24:08;96980.22;;;24.84;100.00
10348;BME280;5220;43.192;23.284;2023-07-13T01:26:35;96979.56;;;24.82;100.00
10348;BME280;5220;43.192;23.284;2023-07-13T01:29:01;96978.56;;;24.83;100.00
10348;BME280;5220;43.192;23.284;2023-07-13T01:31:28;96978.09;;;24.79;100.00
10348;BME280;5220;43.192;23.284;2023-07-13T01:33:55;96974.25;;;24.82;100.00
10348;BME280;5220;43.192;23.284;2023-07-13T01:36:22;96976.91;;;24.82;100.00
10348;BME280;5220;43.192;23.284;2023-07-13T01:38:50;96980.59;;;24.81;100.00
10348;BME280;5220;43.192;23.284;2023-07-13T01:41:17;96983.25;;;24.81;100.00
10348;BME280;5220;43.192;23.284;2023-07-13T01:43:44;96977.28;;;24.79;100.00
10348;BME280;5220;43.192;23.284;2023-07-13T01:46:11;96974.00;;;24.77;100.00
10348;BME280;5220;43.192;23.284;2023-07-13T01:48:38;96983.66;;;24.78;100.00
10348;BME280;5220;43.192;23.284;2023-07-13T01:51:04;96984.03;;;24.75;100.00
10348;BME280;5220;43.192;23.284;2023-07-13T01:53:31;96994.88;;;24.73;100.00
10348;BME280;5220;43.192;23.284;2023-07-13T01:55:59;96986.06;;;24.73;100.00
10348;BME280;5220;43.192;23.284;2023-07-13T01:58:26;96984.44;;;24.72;100.00
10348;BME280;5220;43.192;23.284;2023-07-13T02:00:52;96986.47;;;24.70;100.00
10348;BME280;5220;43.192;23.284;2023-07-13T02:03:19;96987.69;;;24.67;100.00
10348;BME280;5220;43.192;23.284;2023-07-13T02:05:46;96994.84;;;24.67;100.00
10348;BME280;5220;43.192;23.284;2023-07-13T02:08:13;96994.22;;;24.65;100.00
10348;BME280;5220;43.192;23.284;2023-07-13T02:10:39;96983.59;;;24.65;100.00
10348;BME280;5220;43.192;23.284;2023-07-13T02:13:07;96984.00;;;24.61;100.00
10348;BME280;5220;43.192;23.284;2023-07-13T02:15:38;96982.34;;;24.60;100.00
10348;BME280;5220;43.192;23.284;2023-07-13T02:18:05;96974.56;;;24.59;100.00
10348;BME280;5220;43.192;23.284;2023-07-13T02:20:31;96982.56;;;24.59;100.00
10348;BME280;5220;43.192;23.284;2023-07-13T02:22:58;96985.81;;;24.61;100.00
10348;BME280;5220;43.192;23.284;2023-07-13T02:25:25;96985.00;;;24.60;100.00
10348;BME280;5220;43.192;23.284;2023-07-13T02:27:52;96987.66;;;24.60;100.00
10348;BME280;5220;43.192;23.284;2023-07-13T02:30:20;96986.84;;;24.60;100.00
10348;BME280;5220;43.192;23.284;2023-07-13T02:32:50;96985.00;;;24.60;100.00
10348;BME280;5220;43.192;23.284;2023-07-13T02:35:16;96989.72;;;24.58;100.00
10348;BME280;5220;43.192;23.284;2023-07-13T02:37:43;96995.63;;;24.60;100.00
10348;BME280;5220;43.192;23.284;2023-07-13T02:40:10;96991.75;;;24.63;100.00
10348;BME280;5220;43.192;23.284;2023-07-13T02:42:37;96994.22;;;24.65;100.00
10348;BME280;5220;43.192;23.284;2023-07-13T02:45:04;96990.34;;;24.67;100.00
10348;BME280;5220;43.192;23.284;2023-07-13T02:47:33;96989.34;;;24.68;100.00
10348;BME280;5220;43.192;23.284;2023-07-13T02:50:00;96987.28;;;24.70;100.00
10348;BME280;5220;43.192;23.284;2023-07-13T02:52:27;97000.19;;;24.73;100.00
10348;BME280;5220;43.192;23.284;2023-07-13T02:54:54;97000.84;;;24.75;100.00
10348;BME280;5220;43.192;23.284;2023-07-13T02:57:20;96999.19;;;24.74;100.00
10348;BME280;5220;43.192;23.284;2023-07-13T02:59:47;96992.22;;;24.73;100.00
10348;BME280;5220;43.192;23.284;2023-07-13T03:02:14;97003.69;;;24.74;100.00
10348;BME280;5220;43.192;23.284;2023-07-13T03:04:42;97001.59;;;24.69;100.00
10348;BME280;5220;43.192;23.284;2023-07-13T03:07:08;97004.09;;;24.71;100.00
10348;BME280;5220;43.192;23.284;2023-07-13T03:09:35;97002.44;;;24.70;100.00
10348;BME280;5220;43.192;23.284;2023-07-13T03:12:03;97001.41;;;24.71;100.00
10348;BME280;5220;43.192;23.284;2023-07-13T03:14:29;97010.63;;;24.68;100.00
10348;BME280;5220;43.192;23.284;2023-07-13T03:16:56;97002.81;;;24.67;100.00
10348;BME280;5220;43.192;23.284;2023-07-13T03:19:23;96999.75;;;24.63;100.00
10348;BME280;5220;43.192;23.284;2023-07-13T03:21:51;96998.31;;;24.60;100.00
10348;BME280;5220;43.192;23.284;2023-07-13T03:24:19;97003.84;;;24.59;100.00
10348;BME280;5220;43.192;23.284;2023-07-13T03:26:46;96998.09;;;24.55;100.00
10348;BME280;5220;43.192;23.284;2023-07-13T03:29:11;96995.56;;;24.47;100.00
10348;BME280;5220;43.192;23.284;2023-07-13T03:31:39;97006.94;;;24.63;100.00
10348;BME280;5220;43.192;23.284;2023-07-13T03:34:06;97013.91;;;24.70;100.00
10348;BME280;5220;43.192;23.284;2023-07-13T03:36:33;97000.19;;;24.73;100.00
10348;BME280;5220;43.192;23.284;2023-07-13T03:39:02;96995.31;;;24.77;100.00
10348;BME280;5220;43.192;23.284;2023-07-13T03:41:29;97003.66;;;24.67;100.00
10348;BME280;5220;43.192;23.284;2023-07-13T03:43:57;96999.78;;;24.70;100.00
10348;BME280;5220;43.192;23.284;2023-07-13T03:46:23;96999.38;;;24.73;100.00
10348;BME280;5220;43.192;23.284;2023-07-13T03:48:51;97004.94;;;24.78;100.00
10348;BME280;5220;43.192;23.284;2023-07-13T03:51:18;97001.06;;;24.80;100.00
10348;BME280;5220;43.192;23.284;2023-07-13T03:53:47;97004.16;;;24.84;100.00
10348;BME280;5220;43.192;23.284;2023-07-13T03:56:16;97009.91;;;24.87;100.00
10348;BME280;5220;43.192;23.284;2023-07-13T03:58:44;97009.50;;;24.90;100.00
10348;BME280;5220;43.192;23.284;2023-07-13T04:01:12;97001.31;;;24.92;100.00
10348;BME280;5220;43.192;23.284;2023-07-13T04:03:39;97004.63;;;24.94;100.00
10348;BME280;5220;43.192;23.284;2023-07-13T04:06:08;97007.66;;;24.97;100.00
10348;BME280;5220;43.192;23.284;2023-07-13T04:08:40;97006.88;;;25.03;100.00
10348;BME280;5220;43.192;23.284;2023-07-13T04:11:07;97001.97;;;25.07;100.00
10348;BME280;5220;43.192;23.284;2023-07-13T04:13:35;97020.84;;;25.12;100.00
10348;BME280;5220;43.192;23.284;2023-07-13T04:16:02;97027.16;;;25.04;100.00
10348;BME280;5220;43.192;23.284;2023-07-13T04:18:29;97024.09;;;25.14;100.00
10348;BME280;5220;43.192;23.284;2023-07-13T04:20:55;97025.97;;;25.20;100.00
10348;BME280;5220;43.192;23.284;2023-07-13T04:23:22;97024.34;;;25.26;100.00
10348;BME280;5220;43.192;23.284;2023-07-13T04:25:52;97017.00;;;25.34;100.00
10348;BME280;5220;43.192;23.284;2023-07-13T04:28:19;97027.03;;;25.39;100.00
10348;BME280;5220;43.192;23.284;2023-07-13T04:30:47;97018.03;;;25.46;100.00
10348;BME280;5220;43.192;23.284;2023-07-13T04:33:15;97020.94;;;25.51;100.00
10348;BME280;5220;43.192;23.284;2023-07-13T04:35:42;97021.94;;;25.57;100.00
10348;BME280;5220;43.192;23.284;2023-07-13T04:38:09;97025.22;;;25.65;100.00
10348;BME280;5220;43.192;23.284;2023-07-13T04:40:37;97023.63;;;25.78;100.00
10348;BME280;5220;43.192;23.284;2023-07-13T04:43:04;97010.06;;;25.86;100.00
10348;BME280;5220;43.192;23.284;2023-07-13T04:45:31;97012.50;;;25.94;100.00
10348;BME280;5220;43.192;23.284;2023-07-13T04:47:59;97010.47;;;26.02;100.00
10348;BME280;5220;43.192;23.284;2023-07-13T04:50:25;97011.66;;;26.13;100.00
10348;BME280;5220;43.192;23.284;2023-07-13T04:52:52;97009.41;;;26.36;100.00
10348;BME280;5220;43.192;23.284;2023-07-13T04:55:20;97011.94;;;26.82;100.00
10348;BME280;5220;43.192;23.284;2023-07-13T04:57:47;97010.38;;;27.37;100.00
10348;BME280;5220;43.192;23.284;2023-07-13T05:00:14;97005.44;;;27.97;100.00
10348;BME280;5220;43.192;23.284;2023-07-13T05:02:44;97014.28;;;28.58;100.00
10348;BME280;5220;43.192;23.284;2023-07-13T05:05:12;97013.94;;;29.21;100.00
10348;BME280;5220;43.192;23.284;2023-07-13T05:07:39;97019.94;;;29.76;100.00
10348;BME280;5220;43.192;23.284;2023-07-13T05:10:07;97007.97;;;30.25;100.00
10348;BME280;5220;43.192;23.284;2023-07-13T05:12:34;96999.66;;;30.73;100.00
10348;BME280;5220;43.192;23.284;2023-07-13T05:15:01;97006.41;;;31.15;100.00
10348;BME280;5220;43.192;23.284;2023-07-13T05:17:28;97002.03;;;31.54;100.00
10348;BME280;5220;43.192;23.284;2023-07-13T05:19:55;97007.78;;;31.91;100.00
10348;BME280;5220;43.192;23.284;2023-07-13T05:22:23;96998.88;;;32.24;100.00
10348;BME280;5220;43.192;23.284;2023-07-13T05:24:49;96998.06;;;32.62;100.00
10348;BME280;5220;43.192;23.284;2023-07-13T05:27:16;97004.47;;;32.99;100.00
10348;BME280;5220;43.192;23.284;2023-07-13T05:29:43;97010.03;;;33.41;98.98
10348;BME280;5220;43.192;23.284;2023-07-13T05:32:10;97004.31;;;33.91;96.65
10348;BME280;5220;43.192;23.284;2023-07-13T05:34:36;97010.66;;;34.43;93.72
10348;BME280;5220;43.192;23.284;2023-07-13T05:37:04;97010.34;;;34.87;91.04
10348;BME280;5220;43.192;23.284;2023-07-13T05:39:32;97009.69;;;35.32;88.79
10348;BME280;5220;43.192;23.284;2023-07-13T05:41:59;97013.56;;;35.76;86.93
10348;BME280;5220;43.192;23.284;2023-07-13T05:44:25;97026.84;;;36.13;85.67
10348;BME280;5220;43.192;23.284;2023-07-13T05:46:52;97025.47;;;36.46;83.30
10348;BME280;5220;43.192;23.284;2023-07-13T05:49:20;97028.38;;;36.75;81.91
10348;BME280;5220;43.192;23.284;2023-07-13T05:51:47;97029.38;;;36.94;77.36
10348;BME280;5220;43.192;23.284;2023-07-13T05:54:13;97039.38;;;37.08;79.06
10348;BME280;5220;43.192;23.284;2023-07-13T05:56:41;97032.53;;;37.21;76.93
10348;BME280;5220;43.192;23.284;2023-07-13T05:59:08;97036.00;;;37.32;74.76
10348;BME280;5220;43.192;23.284;2023-07-13T06:01:35;97038.16;;;37.35;75.65
10348;BME280;5220;43.192;23.284;2023-07-13T06:04:02;97039.31;;;37.24;78.64
10348;BME280;5220;43.192;23.284;2023-07-13T06:06:29;97035.63;;;37.04;78.26
10348;BME280;5220;43.192;23.284;2023-07-13T06:08:55;97036.25;;;36.76;74.41
10348;BME280;5220;43.192;23.284;2023-07-13T06:11:23;97039.28;;;36.44;79.10
10348;BME280;5220;43.192;23.284;2023-07-13T06:13:52;97045.00;;;36.12;67.31
10348;BME280;5220;43.192;23.284;2023-07-13T06:16:19;97046.06;;;35.81;67.61
10348;BME280;5220;43.192;23.284;2023-07-13T06:18:46;97043.56;;;35.49;67.37
10348;BME280;5220;43.192;23.284;2023-07-13T06:21:16;97042.13;;;35.17;69.38
10348;BME280;5220;43.192;23.284;2023-07-13T06:23:44;97044.16;;;34.89;76.25
10348;BME280;5220;43.192;23.284;2023-07-13T06:26:13;97053.72;;;34.60;81.67
10348;BME280;5220;43.192;23.284;2023-07-13T06:28:39;97048.94;;;34.35;81.38
10348;BME280;5220;43.192;23.284;2023-07-13T06:31:09;97043.59;;;34.09;81.29
10348;BME280;5220;43.192;23.284;2023-07-13T06:33:36;97043.50;;;33.93;91.97
10348;BME280;5220;43.192;23.284;2023-07-13T06:36:04;97040.91;;;33.77;94.08
10348;BME280;5220;43.192;23.284;2023-07-13T06:38:31;97036.44;;;33.61;94.47
10348;BME280;5220;43.192;23.284;2023-07-13T06:40:58;97035.19;;;33.46;92.61
10348;BME280;5220;43.192;23.284;2023-07-13T06:43:25;97026.72;;;33.38;91.28
10348;BME280;5220;43.192;23.284;2023-07-13T06:45:55;97026.38;;;33.29;96.09
10348;BME280;5220;43.192;23.284;2023-07-13T06:48:23;97017.19;;;33.25;99.80
10348;BME280;5220;43.192;23.284;2023-07-13T06:50:51;97012.03;;;33.24;100.00
10348;BME280;5220;43.192;23.284;2023-07-13T06:53:19;97010.34;;;33.18;100.00
10348;BME280;5220;43.192;23.284;2023-07-13T06:55:46;97006.28;;;33.15;100.00
10348;BME280;5220;43.192;23.284;2023-07-13T06:58:15;97003.59;;;33.15;99.85
10348;BME280;5220;43.192;23.284;2023-07-13T07:00:42;97010.47;;;33.06;100.00
10348;BME280;5220;43.192;23.284;2023-07-13T07:03:09;97005.34;;;32.83;100.00
10348;BME280;5220;43.192;23.284;2023-07-13T07:05:37;97005.09;;;32.84;100.00
10348;BME280;5220;43.192;23.284;2023-07-13T07:08:04;96997.69;;;32.96;100.00
10348;BME280;5220;43.192;23.284;2023-07-13T07:10:31;96989.72;;;33.07;100.00
10348;BME280;5220;43.192;23.284;2023-07-13T07:12:57;96992.53;;;33.17;100.00
10348;BME280;5220;43.192;23.284;2023-07-13T07:15:25;96985.94;;;33.29;100.00
10348;BME280;5220;43.192;23.284;2023-07-13T07:17:51;96982.16;;;33.30;100.00
10348;BME280;5220;43.192;23.284;2023-07-13T07:20:18;96977.72;;;33.19;96.83
10348;BME280;5220;43.192;23.284;2023-07-13T07:22:47;96979.28;;;33.37;98.81
10348;BME280;5220;43.192;23.284;2023-07-13T07:25:14;96979.88;;;33.44;99.83
10348;BME280;5220;43.192;23.284;2023-07-13T07:27:40;96986.28;;;33.38;98.19
10348;BME280;5220;43.192;23.284;2023-07-13T07:30:08;96975.34;;;33.49;94.26
10348;BME280;5220;43.192;23.284;2023-07-13T07:32:35;96975.13;;;33.56;87.43
10348;BME280;5220;43.192;23.284;2023-07-13T07:35:01;96966.59;;;33.64;84.17
10348;BME280;5220;43.192;23.284;2023-07-13T07:37:28;96976.94;;;33.77;95.75
10348;BME280;5220;43.192;23.284;2023-07-13T07:39:56;96962.41;;;33.78;76.69
10348;BME280;5220;43.192;23.284;2023-07-13T07:42:24;96963.78;;;33.86;76.67
10348;BME280;5220;43.192;23.284;2023-07-13T07:44:51;96973.75;;;33.85;59.96
10348;BME280;5220;43.192;23.284;2023-07-13T07:47:18;96966.81;;;33.94;58.86
10348;BME280;5220;43.192;23.284;2023-07-13T07:49:44;96959.81;;;33.98;50.69
10348;BME280;5220;43.192;23.284;2023-07-13T07:52:11;96967.94;;;34.03;52.40
10348;BME280;5220;43.192;23.284;2023-07-13T07:54:38;96960.63;;;33.99;58.28
10348;BME280;5220;43.192;23.284;2023-07-13T07:57:06;96970.09;;;34.01;54.40
10348;BME280;5220;43.192;23.284;2023-07-13T07:59:33;96963.34;;;33.99;48.01
10348;BME280;5220;43.192;23.284;2023-07-13T08:02:00;96963.72;;;34.13;54.28
10348;BME280;5220;43.192;23.284;2023-07-13T08:04:28;96965.81;;;34.05;59.05
10348;BME280;5220;43.192;23.284;2023-07-13T08:06:55;96960.78;;;34.19;63.04
10348;BME280;5220;43.192;23.284;2023-07-13T08:09:22;96966.25;;;34.29;63.37
10348;BME280;5220;43.192;23.284;2023-07-13T08:11:49;96969.78;;;34.35;61.54
10348;BME280;5220;43.192;23.284;2023-07-13T08:14:18;96982.97;;;34.21;63.22
10348;BME280;5220;43.192;23.284;2023-07-13T08:16:45;96990.97;;;33.74;68.19
10348;BME280;5220;43.192;23.284;2023-07-13T08:19:12;96994.38;;;33.65;72.41
10348;BME280;5220;43.192;23.284;2023-07-13T08:21:39;97011.94;;;33.67;72.33
10348;BME280;5220;43.192;23.284;2023-07-13T08:24:08;97011.56;;;33.85;66.31
10348;BME280;5220;43.192;23.284;2023-07-13T08:26:35;97015.47;;;33.99;69.23
10348;BME280;5220;43.192;23.284;2023-07-13T08:29:02;97025.28;;;34.11;62.75
10348;BME280;5220;43.192;23.284;2023-07-13T08:31:30;97033.94;;;34.13;57.76
10348;BME280;5220;43.192;23.284;2023-07-13T08:33:57;97033.97;;;34.18;57.49
10348;BME280;5220;43.192;23.284;2023-07-13T08:36:25;97042.09;;;34.18;58.10
10348;BME280;5220;43.192;23.284;2023-07-13T08:38:52;97036.69;;;34.23;57.71
10348;BME280;5220;43.192;23.284;2023-07-13T08:41:19;97043.72;;;34.19;60.55
10348;BME280;5220;43.192;23.284;2023-07-13T08:43:49;97052.16;;;34.32;53.43
10348;BME280;5220;43.192;23.284;2023-07-13T08:46:19;97043.81;;;34.34;49.09
10348;BME280;5220;43.192;23.284;2023-07-13T08:48:52;97055.72;;;34.38;53.05
10348;BME280;5220;43.192;23.284;2023-07-13T08:51:26;97057.84;;;34.31;52.55
10348;BME280;5220;43.192;23.284;2023-07-13T08:54:02;97057.91;;;34.41;54.03
10348;BME280;5220;43.192;23.284;2023-07-13T08:56:30;97067.13;;;34.50;56.92
10348;BME280;5220;43.192;23.284;2023-07-13T08:59:00;97051.22;;;34.53;53.85
10348;BME280;5220;43.192;23.284;2023-07-13T09:01:38;97052.91;;;34.60;53.14
10348;BME280;5220;43.192;23.284;2023-07-13T09:04:14;97048.28;;;34.55;51.83
10348;BME280;5220;43.192;23.284;2023-07-13T09:06:56;97056.59;;;34.43;52.07
10348;BME280;5220;43.192;23.284;2023-07-13T09:09:36;97048.81;;;34.57;57.14
10348;BME280;5220;43.192;23.284;2023-07-13T09:12:10;97046.50;;;34.71;54.23
10348;BME280;5220;43.192;23.284;2023-07-13T09:14:43;97046.22;;;34.72;55.31
10348;BME280;5220;43.192;23.284;2023-07-13T09:17:16;97044.69;;;34.86;50.97
10348;BME280;5220;43.192;23.284;2023-07-13T09:19:48;97042.03;;;34.96;54.16
10348;BME280;5220;43.192;23.284;2023-07-13T09:22:21;97045.03;;;35.05;51.40
10348;BME280;5220;43.192;23.284;2023-07-13T09:24:54;97040.28;;;34.70;53.48
10348;BME280;5220;43.192;23.284;2023-07-13T09:27:24;97048.44;;;34.85;52.15
10348;BME280;5220;43.192;23.284;2023-07-13T09:30:11;97046.63;;;35.01;53.65
10348;BME280;5220;43.192;23.284;2023-07-13T09:32:47;97039.56;;;34.95;49.48
10348;BME280;5220;43.192;23.284;2023-07-13T09:35:19;97041.50;;;35.04;47.80
10348;BME280;5220;43.192;23.284;2023-07-13T09:37:47;97037.97;;;34.99;48.76
10348;BME280;5220;43.192;23.284;2023-07-13T09:40:25;97044.28;;;35.15;47.28
10348;BME280;5220;43.192;23.284;2023-07-13T09:42:57;97036.13;;;35.09;48.09
10348;BME280;5220;43.192;23.284;2023-07-13T09:45:28;97038.84;;;35.09;50.12
10348;BME280;5220;43.192;23.284;2023-07-13T09:48:00;97050.97;;;35.02;50.65
10348;BME280;5220;43.192;23.284;2023-07-13T09:50:31;97052.03;;;35.01;51.08
10348;BME280;5220;43.192;23.284;2023-07-13T09:52:58;97044.25;;;35.09;48.32
10348;BME280;5220;43.192;23.284;2023-07-13T09:55:30;97038.28;;;35.07;50.71
10348;BME280;5220;43.192;23.284;2023-07-13T09:58:03;97036.16;;;35.20;52.55
10348;BME280;5220;43.192;23.284;2023-07-13T10:00:31;97027.47;;;35.13;52.21
10348;BME280;5220;43.192;23.284;2023-07-13T10:03:03;97029.69;;;35.21;50.28
10348;BME280;5220;43.192;23.284;2023-07-13T10:05:39;97025.34;;;35.20;51.37
10348;BME280;5220;43.192;23.284;2023-07-13T10:08:16;97023.22;;;35.27;51.72
10348;BME280;5220;43.192;23.284;2023-07-13T10:10:44;97022.97;;;35.38;48.94
10348;BME280;5220;43.192;23.284;2023-07-13T10:13:25;97014.81;;;35.28;45.62
10348;BME280;5220;43.192;23.284;2023-07-13T10:15:55;97011.31;;;35.38;45.55
10348;BME280;5220;43.192;23.284;2023-07-13T10:18:23;97007.81;;;35.47;47.09
10348;BME280;5220;43.192;23.284;2023-07-13T10:20:54;96997.81;;;35.53;46.74
10348;BME280;5220;43.192;23.284;2023-07-13T10:23:27;96994.34;;;35.57;46.36
10348;BME280;5220;43.192;23.284;2023-07-13T10:25:59;96989.75;;;35.58;46.19
10348;BME280;5220;43.192;23.284;2023-07-13T10:28:30;96997.28;;;35.46;47.07
10348;BME280;5220;43.192;23.284;2023-07-13T10:30:59;96989.69;;;35.48;46.34
10348;BME280;5220;43.192;23.284;2023-07-13T10:33:27;96989.16;;;35.46;46.77
10348;BME280;5220;43.192;23.284;2023-07-13T10:36:01;96982.13;;;35.40;45.05
10348;BME280;5220;43.192;23.284;2023-07-13T10:38:30;96980.75;;;35.42;46.28
10348;BME280;5220;43.192;23.284;2023-07-13T10:41:01;96978.84;;;35.53;47.57
10348;BME280;5220;43.192;23.284;2023-07-13T10:43:32;96983.47;;;35.42;44.78
10348;BME280;5220;43.192;23.284;2023-07-13T10:46:03;96970.72;;;35.33;44.72
10348;BME280;5220;43.192;23.284;2023-07-13T10:48:32;96975.63;;;35.31;46.74
10348;BME280;5220;43.192;23.284;2023-07-13T10:51:01;96969.09;;;35.32;46.10
10348;BME280;5220;43.192;23.284;2023-07-13T10:53:32;96970.72;;;35.38;46.32
10348;BME280;5220;43.192;23.284;2023-07-13T10:56:01;96964.25;;;35.44;48.94
10348;BME280;5220;43.192;23.284;2023-07-13T10:58:36;96953.16;;;35.50;48.86
10348;BME280;5220;43.192;23.284;2023-07-13T11:01:07;96964.53;;;35.47;46.37
10348;BME280;5220;43.192;23.284;2023-07-13T11:03:37;96963.47;;;35.64;48.94
10348;BME280;5220;43.192;23.284;2023-07-13T11:06:09;96961.31;;;35.60;52.43
10348;BME280;5220;43.192;23.284;2023-07-13T11:08:38;96946.69;;;35.72;49.71
10348;BME280;5220;43.192;23.284;2023-07-13T11:11:35;96948.59;;;35.66;50.77
10348;BME280;5220;43.192;23.284;2023-07-13T11:14:04;96942.91;;;35.63;52.07
10348;BME280;5220;43.192;23.284;2023-07-13T11:16:43;96936.69;;;35.67;48.69
10348;BME280;5220;43.192;23.284;2023-07-13T11:19:29;96931.81;;;35.74;47.96
10348;BME280;5220;43.192;23.284;2023-07-13T11:22:15;96915.56;;;35.79;50.56
10348;BME280;5220;43.192;23.284;2023-07-13T11:25:00;96916.63;;;35.83;49.50
10348;BME280;5220;43.192;23.284;2023-07-13T11:27:36;96919.88;;;35.80;50.07
10348;BME280;5220;43.192;23.284;2023-07-13T11:30:20;96915.03;;;35.77;45.98
10348;BME280;5220;43.192;23.284;2023-07-13T11:32:51;96910.13;;;35.84;50.01
10348;BME280;5220;43.192;23.284;2023-07-13T11:35:23;96894.16;;;35.83;45.58
10348;BME280;5220;43.192;23.284;2023-07-13T11:37:51;96889.50;;;35.93;49.11
10348;BME280;5220;43.192;23.284;2023-07-13T11:40:27;96899.28;;;35.89;47.10
10348;BME280;5220;43.192;23.284;2023-07-13T11:42:59;96893.56;;;36.01;47.40
10348;BME280;5220;43.192;23.284;2023-07-13T11:45:26;96890.63;;;35.92;53.17
10348;BME280;5220;43.192;23.284;2023-07-13T11:47:53;96887.91;;;35.92;46.64
10348;BME280;5220;43.192;23.284;2023-07-13T11:50:23;96882.50;;;35.92;42.38
10348;BME280;5220;43.192;23.284;2023-07-13T11:52:53;96885.19;;;36.02;42.32
10348;BME280;5220;43.192;23.284;2023-07-13T11:55:22;96886.25;;;35.96;44.46
10348;BME280;5220;43.192;23.284;2023-07-13T11:57:54;96870.00;;;35.96;43.96
10348;BME280;5220;43.192;23.284;2023-07-13T12:00:26;96870.53;;;36.03;43.59
10348;BME280;5220;43.192;23.284;2023-07-13T12:02:57;96867.31;;;36.06;45.59
10348;BME280;5220;43.192;23.284;2023-07-13T12:05:25;96872.72;;;35.96;44.10
10348;BME280;5220;43.192;23.284;2023-07-13T12:07:54;96872.75;;;35.81;41.54
10348;BME280;5220;43.192;23.284;2023-07-13T12:10:23;96866.50;;;35.96;44.16
10348;BME280;5220;43.192;23.284;2023-07-13T12:12:53;96863.50;;;36.02;44.06
10348;BME280;5220;43.192;23.284;2023-07-13T12:15:20;96874.34;;;35.97;38.46
10348;BME280;5220;43.192;23.284;2023-07-13T12:17:49;96877.91;;;35.93;37.18
10348;BME280;5220;43.192;23.284;2023-07-13T12:20:21;96878.19;;;35.86;35.55
10348;BME280;5220;43.192;23.284;2023-07-13T12:22:50;96873.81;;;35.95;35.67
10348;BME280;5220;43.192;23.284;2023-07-13T12:25:19;96866.78;;;35.89;34.24
10348;BME280;5220;43.192;23.284;2023-07-13T12:27:47;96864.94;;;35.70;34.92
10348;BME280;5220;43.192;23.284;2023-07-13T12:30:24;96868.44;;;35.80;34.93
10348;BME280;5220;43.192;23.284;2023-07-13T12:33:00;96865.69;;;35.90;35.21
10348;BME280;5220;43.192;23.284;2023-07-13T12:35:29;96861.94;;;35.86;34.29
10348;BME280;5220;43.192;23.284;2023-07-13T12:38:01;96865.69;;;35.95;36.37
10348;BME280;5220;43.192;23.284;2023-07-13T12:40:32;96864.88;;;35.95;36.42
10348;BME280;5220;43.192;23.284;2023-07-13T12:43:01;96864.31;;;35.98;36.68
10348;BME280;5220;43.192;23.284;2023-07-13T12:45:30;96862.97;;;35.95;34.93
10348;BME280;5220;43.192;23.284;2023-07-13T12:47:59;96861.09;;;35.91;32.87
10348;BME280;5220;43.192;23.284;2023-07-13T12:50:34;96853.25;;;35.89;33.61
10348;BME280;5220;43.192;23.284;2023-07-13T12:53:04;96851.88;;;35.97;33.57
10348;BME280;5220;43.192;23.284;2023-07-13T12:55:41;96850.28;;;35.86;34.98
10348;BME280;5220;43.192;23.284;2023-07-13T12:58:16;96848.09;;;35.93;34.86
10348;BME280;5220;43.192;23.284;2023-07-13T13:00:48;96844.06;;;35.80;35.74
10348;BME280;5220;43.192;23.284;2023-07-13T13:03:22;96846.78;;;35.75;35.51
10348;BME280;5220;43.192;23.284;2023-07-13T13:05:57;96849.22;;;35.77;35.19